Avella, PA

2:15 AM EST on December 03, 2016 (GMT -0500)
Eldersville Rd | | Change Station

Elev 1165 ft 40.35 °N, 80.56 °W | Updated 16 seconds ago

Mostly Cloudy
Mostly Cloudy
34.2 °F
Feels Like 34 °F
N
1.0
Wind Variable Wind from NNE

Today
High -- | Low -- °F
--% Chance of Precip.
Yesterday
High -- | Low -- °F
Precip. -- in
Pressure 30.23 in
Visibility 10.0 miles
Clouds Mostly Cloudy 2800 ft
Windchill 34 °F
Dew Point 30 °F
Humidity 86%
Rainfall 0.00 in
Snow Depth Not available.
7:27 AM 4:55 PM
Waxing Crescent, 13% visible
SPECI KHLG 030711Z AUTO 27007KT 10SM BKN028 01/M03 A3023 RMK AO2 T00061028
Pressure 30.23 in
Visibility 10.0 miles
Clouds Mostly Cloudy 2800 ft
Windchill 34 °F
Dew Point 30 °F
Humidity 86%
Rainfall 0.00 in
Snow Depth Not available.
7:27 AM 4:55 PM
Waxing Crescent, 13% visible
SPECI KHLG 030711Z AUTO 27007KT 10SM BKN028 01/M03 A3023 RMK AO2 T00061028

10-Day Weather Forecast

Almanac

Astronomy

Dec. 03, 2016 Rise Set
Actual Time
Civil Twilight
Nautical Twilight
Astronomical Twilight
Moon
Length of Visible Light
Length of Day
Tomorrow will be .
, % of the Moon is Illuminated

Today's Extremes

State Highs State Lows

Community

WunderPhotos

Upload Photos

1,955,432 photos uploaded!

WunderBlog® & News

Nearby

Air Quality

  Air Quality AQ Index Pollutant
Not available.

Snow Depth

Station Depth Elevation

Earthquake Activity

City Distance Mag. Time & Date
Minimum magnitude displayed is 2.5.

Coastal Water Temperatures

Place Temperature

Stations

Nearby Weather Stations

Station Location Temp. Windchill Dew Point Humidity Wind Precip. Elev Updated Type
                   

Watches & Warnings

There are currently no watches in effect.